createdAt,value
2019-04-25T00:00:15.813Z,12.33
2019-04-25T00:02:47.161Z,12.05
2019-04-25T00:05:17.182Z,10.90
2019-04-25T00:07:47.144Z,11.53
2019-04-25T00:10:16.809Z,11.55
2019-04-25T00:12:46.517Z,10.63
2019-04-25T00:15:16.423Z,11.68
2019-04-25T00:17:46.194Z,11.48
2019-04-25T00:20:17.086Z,11.08
2019-04-25T00:22:57.126Z,12.10
2019-04-25T00:25:28.475Z,11.43
2019-04-25T00:27:58.197Z,12.03
2019-04-25T00:30:29.157Z,11.60
2019-04-25T00:32:59.145Z,11.63
2019-04-25T00:35:28.761Z,12.05
2019-04-25T00:37:58.460Z,11.48
2019-04-25T00:40:28.582Z,12.60
2019-04-25T00:42:58.393Z,12.10
2019-04-25T00:45:28.106Z,11.10
2019-04-25T00:47:57.814Z,11.63
2019-04-25T00:50:27.525Z,12.37
2019-04-25T00:52:57.339Z,11.85
2019-04-25T00:55:29.023Z,12.53
2019-04-25T00:58:01.365Z,11.45
2019-04-25T01:00:32.756Z,12.25
2019-04-25T01:03:03.717Z,12.60
2019-04-25T01:05:33.049Z,12.73
2019-04-25T01:08:02.870Z,12.07
2019-04-25T01:10:32.573Z,12.07
2019-04-25T01:13:03.077Z,12.88
2019-04-25T01:15:33.847Z,12.68
2019-04-25T01:18:03.846Z,12.28
2019-04-25T01:20:34.489Z,12.68
2019-04-25T01:23:04.097Z,12.80
2019-04-25T01:25:41.064Z,12.88
2019-04-25T01:28:05.159Z,12.25
2019-04-25T01:30:34.867Z,13.18
2019-04-25T01:33:04.677Z,12.70
2019-04-25T01:35:35.931Z,13.18
2019-04-25T01:38:19.563Z,12.00
2019-04-25T01:41:03.350Z,12.47
2019-04-25T01:43:40.786Z,12.88
2019-04-25T01:46:10.705Z,12.55
2019-04-25T01:48:40.423Z,12.43
2019-04-25T01:51:09.769Z,13.35
2019-04-25T01:53:39.333Z,12.98
2019-04-25T01:56:09.037Z,12.98
2019-04-25T01:58:38.355Z,13.30
2019-04-25T02:01:08.045Z,12.58
2019-04-25T02:03:37.858Z,13.22
2019-04-25T02:06:07.313Z,12.93
2019-04-25T02:08:36.873Z,13.38
2019-04-25T02:11:16.758Z,13.85
2019-04-25T02:13:45.997Z,13.43
2019-04-25T02:16:16.137Z,13.30
2019-04-25T02:18:45.846Z,12.88
2019-04-25T02:21:15.549Z,13.88
2019-04-25T02:23:44.829Z,14.68
2019-04-25T02:26:18.219Z,13.80
2019-04-25T02:28:45.613Z,13.85
2019-04-25T02:31:18.306Z,13.40
2019-04-25T02:33:46.870Z,13.13
2019-04-25T02:36:16.688Z,13.35
2019-04-25T02:38:46.394Z,13.40
2019-04-25T02:41:16.110Z,13.70
2019-04-25T02:43:45.918Z,13.30
2019-04-25T02:46:20.044Z,13.78
2019-04-25T02:48:51.500Z,14.38
2019-04-25T02:51:25.595Z,13.85
2019-04-25T02:53:57.862Z,14.78
2019-04-25T02:56:34.397Z,13.88
2019-04-25T02:58:58.925Z,14.70
2019-04-25T03:01:28.743Z,15.15
2019-04-25T03:03:59.327Z,14.50
2019-04-25T03:06:29.596Z,14.90
2019-04-25T03:09:00.259Z,14.50
2019-04-25T03:11:32.186Z,14.80
2019-04-25T03:14:02.089Z,12.55
2019-04-25T03:16:31.813Z,14.10
2019-04-25T03:19:20.055Z,14.40
2019-04-25T03:21:51.406Z,14.03
2019-04-25T03:24:21.111Z,14.55
2019-04-25T03:26:50.817Z,14.63
2019-04-25T03:29:20.228Z,14.53
2019-04-25T03:31:49.579Z,14.60
2019-04-25T03:34:20.584Z,14.65
2019-04-25T03:36:50.690Z,14.87
2019-04-25T03:39:20.300Z,15.68
2019-04-25T03:41:49.897Z,16.07
2019-04-25T03:44:19.618Z,13.75
2019-04-25T03:46:49.321Z,15.53
2019-04-25T03:49:19.133Z,14.70
2019-04-25T03:51:48.469Z,14.63
2019-04-25T03:54:17.746Z,14.85
2019-04-25T03:56:53.633Z,15.72
2019-04-25T03:59:18.798Z,15.53
2019-04-25T04:01:48.498Z,15.03
2019-04-25T04:04:18.214Z,16.07
2019-04-25T04:06:47.818Z,15.53
2019-04-25T04:09:17.628Z,15.08
2019-04-25T04:11:47.142Z,15.30
2019-04-25T04:14:16.954Z,15.20
2019-04-25T04:17:06.286Z,16.00
2019-04-25T04:19:37.333Z,16.50
2019-04-25T04:22:20.491Z,16.42
2019-04-25T04:24:51.836Z,16.77
2019-04-25T04:27:21.446Z,18.25
2019-04-25T04:29:51.049Z,17.55
2019-04-25T04:32:20.765Z,17.60
2019-04-25T04:34:50.473Z,17.15
2019-04-25T04:37:19.749Z,16.93
2019-04-25T04:39:49.026Z,16.85
2019-04-25T04:42:18.785Z,16.50
2019-04-25T04:44:48.493Z,15.43
2019-04-25T04:47:18.591Z,16.15
2019-04-25T04:49:48.032Z,16.17
2019-04-25T04:52:17.459Z,16.55
2019-04-25T04:54:46.880Z,15.98
2019-04-25T04:57:27.018Z,16.02
2019-04-25T04:59:47.982Z,16.50
2019-04-25T05:02:31.105Z,17.57
2019-04-25T05:05:08.236Z,17.70
2019-04-25T05:07:39.539Z,15.88
2019-04-25T05:10:09.253Z,17.35
2019-04-25T05:12:39.164Z,16.90
2019-04-25T05:15:08.974Z,16.90
2019-04-25T05:17:38.790Z,15.88
2019-04-25T05:20:08.601Z,17.60
2019-04-25T05:22:38.417Z,17.48
2019-04-25T05:25:08.201Z,17.65
2019-04-25T05:27:50.670Z,18.17
2019-04-25T05:30:11.024Z,16.95
2019-04-25T05:32:40.464Z,16.52
2019-04-25T05:35:09.907Z,16.35
2019-04-25T05:37:39.642Z,17.52
2019-04-25T05:40:08.962Z,17.35
2019-04-25T05:42:56.262Z,16.52
2019-04-25T05:45:27.197Z,17.45
2019-04-25T05:47:57.117Z,16.73
2019-04-25T05:50:26.734Z,16.52
2019-04-25T05:52:56.438Z,17.50
2019-04-25T05:55:26.573Z,18.02
2019-04-25T05:57:56.474Z,16.75
2019-04-25T06:00:27.078Z,16.50
2019-04-25T06:02:57.840Z,16.37
2019-04-25T06:05:27.629Z,17.32
2019-04-25T06:07:58.074Z,16.95
2019-04-25T06:10:46.021Z,17.15
2019-04-25T06:13:33.848Z,16.73
2019-04-25T06:16:04.918Z,16.10
2019-04-25T06:18:43.863Z,15.32
2019-04-25T06:21:14.325Z,16.80
2019-04-25T06:23:46.041Z,16.10
2019-04-25T06:26:26.699Z,15.15
2019-04-25T06:28:53.671Z,17.23
2019-04-25T06:31:21.320Z,16.32
2019-04-25T06:33:51.319Z,16.07
2019-04-25T06:36:21.322Z,16.23
2019-04-25T06:38:52.145Z,15.95
2019-04-25T06:41:21.982Z,15.83
2019-04-25T06:43:54.138Z,14.35
2019-04-25T06:46:25.819Z,14.07
2019-04-25T06:49:00.810Z,13.00
2019-04-25T06:51:49.881Z,12.85
2019-04-25T06:54:21.936Z,12.55
2019-04-25T06:56:53.540Z,12.88
2019-04-25T06:59:25.941Z,13.13
2019-04-25T07:01:56.225Z,12.60
2019-04-25T07:04:26.980Z,12.03
2019-04-25T07:07:09.687Z,13.60
2019-04-25T07:09:31.479Z,12.88
2019-04-25T07:12:03.578Z,12.20
2019-04-25T07:14:34.117Z,11.90
2019-04-25T07:17:04.494Z,12.98
2019-04-25T07:19:35.496Z,12.47
2019-04-25T07:22:05.349Z,11.33
2019-04-25T07:24:35.401Z,11.20
2019-04-25T07:27:24.542Z,11.57
2019-04-25T07:29:56.220Z,11.03
2019-04-25T07:32:30.179Z,11.50
2019-04-25T07:34:58.508Z,10.10
2019-04-25T07:37:28.181Z,10.70
2019-04-25T07:39:57.894Z,10.48
2019-04-25T07:42:27.693Z,10.60
2019-04-25T07:44:57.430Z,10.58
2019-04-25T07:47:27.256Z,10.88
2019-04-25T07:49:57.146Z,11.28
2019-04-25T07:52:28.777Z,10.75
2019-04-25T07:54:58.510Z,10.20
2019-04-25T07:57:27.982Z,11.18
2019-04-25T07:59:57.721Z,11.28
2019-04-25T08:02:29.687Z,10.00
2019-04-25T08:05:01.033Z,10.40
2019-04-25T08:07:31.568Z,9.90
2019-04-25T08:10:01.381Z,10.95
2019-04-25T08:12:34.213Z,10.03
2019-04-25T08:15:13.767Z,11.30
2019-04-25T08:17:48.429Z,10.70
2019-04-25T08:20:18.141Z,11.53
2019-04-25T08:22:55.696Z,10.30
2019-04-25T08:25:19.787Z,10.38
2019-04-25T08:27:49.826Z,11.53
2019-04-25T08:30:19.539Z,9.68
2019-04-25T08:32:49.145Z,10.98
2019-04-25T08:35:18.862Z,11.33
2019-04-25T08:37:48.566Z,10.53
2019-04-25T08:40:18.486Z,11.50
2019-04-25T08:42:48.190Z,12.15
2019-04-25T08:45:17.805Z,9.95
2019-04-25T08:47:47.250Z,11.50
2019-04-25T08:50:28.835Z,11.12
2019-04-25T08:52:54.402Z,10.18
2019-04-25T08:55:42.034Z,10.05
2019-04-25T08:58:13.769Z,9.85
2019-04-25T09:00:58.275Z,10.32
2019-04-25T09:03:19.150Z,9.65
2019-04-25T09:05:50.523Z,10.80
2019-04-25T09:08:20.318Z,10.75
2019-04-25T09:10:50.119Z,9.13
2019-04-25T09:13:19.738Z,9.15
2019-04-25T09:15:49.537Z,8.60
2019-04-25T09:18:19.917Z,8.65
2019-04-25T09:20:49.791Z,9.58
2019-04-25T09:23:19.488Z,8.40
2019-04-25T09:25:49.307Z,7.75
2019-04-25T09:28:19.010Z,7.72
2019-04-25T09:30:48.463Z,8.15
2019-04-25T09:33:18.131Z,7.92
2019-04-25T09:35:47.836Z,7.65
2019-04-25T09:38:17.655Z,7.97
2019-04-25T09:40:47.028Z,7.35
2019-04-25T09:43:16.661Z,7.75
2019-04-25T09:46:00.094Z,7.42
2019-04-25T09:48:35.381Z,7.78
2019-04-25T09:51:09.554Z,6.78
2019-04-25T09:53:45.963Z,7.42
2019-04-25T09:56:14.082Z,7.30
2019-04-25T09:58:48.271Z,7.30
2019-04-25T10:01:17.702Z,6.62
2019-04-25T10:03:47.450Z,6.30
2019-04-25T10:06:17.647Z,6.08
2019-04-25T10:08:47.523Z,6.03
2019-04-25T10:11:17.471Z,6.15
2019-04-25T10:13:58.744Z,7.03
2019-04-25T10:16:28.358Z,6.05
2019-04-25T10:18:57.705Z,5.92
2019-04-25T10:21:27.365Z,5.20
2019-04-25T10:23:56.974Z,5.92
2019-04-25T10:26:27.161Z,5.83
2019-04-25T10:28:56.500Z,4.97
2019-04-25T10:31:26.311Z,5.20
2019-04-25T10:33:56.117Z,5.90
2019-04-25T10:36:25.834Z,5.83
2019-04-25T10:39:07.604Z,5.40
2019-04-25T10:41:26.477Z,5.58
2019-04-25T10:43:56.227Z,5.97
2019-04-25T10:46:26.005Z,5.33
2019-04-25T10:48:56.167Z,4.65
2019-04-25T10:51:25.946Z,5.28
2019-04-25T10:53:55.216Z,4.72
2019-04-25T10:56:24.840Z,5.40
2019-04-25T10:58:54.953Z,5.33
2019-04-25T11:01:24.982Z,5.53
2019-04-25T11:04:10.827Z,5.75
2019-04-25T11:06:40.847Z,5.72
2019-04-25T11:09:15.439Z,5.17
2019-04-25T11:11:45.833Z,4.37
2019-04-25T11:14:15.749Z,5.28
2019-04-25T11:16:45.636Z,5.17
2019-04-25T11:19:16.293Z,4.60
2019-04-25T11:21:46.560Z,3.72
2019-04-25T11:24:16.343Z,4.00
2019-04-25T11:26:49.922Z,4.50
2019-04-25T11:29:17.197Z,4.03
2019-04-25T11:31:47.534Z,3.90
2019-04-25T11:34:17.932Z,4.65
2019-04-25T11:36:48.429Z,3.10
2019-04-25T11:39:29.649Z,3.72
2019-04-25T11:41:59.468Z,4.28
2019-04-25T11:44:29.269Z,7.08
2019-04-25T11:46:58.893Z,4.05
2019-04-25T11:49:28.702Z,8.75
2019-04-25T11:51:58.401Z,10.38
2019-04-25T11:54:28.219Z,8.00
2019-04-25T11:56:57.822Z,5.72
2019-04-25T11:59:27.636Z,7.55
2019-04-25T12:01:57.468Z,6.45
2019-04-25T12:04:26.898Z,5.60
2019-04-25T12:06:56.562Z,5.62
2019-04-25T12:09:26.172Z,5.53
2019-04-25T12:11:56.022Z,4.15
2019-04-25T12:14:25.434Z,4.47
2019-04-25T12:16:56.264Z,4.87
2019-04-25T12:19:35.058Z,4.50
2019-04-25T12:21:58.237Z,4.22
2019-04-25T12:24:27.641Z,4.00
2019-04-25T12:26:57.520Z,4.80
2019-04-25T12:29:28.365Z,3.72
2019-04-25T12:31:58.638Z,4.03
2019-04-25T12:34:28.489Z,3.58
2019-04-25T12:36:58.413Z,3.50
2019-04-25T12:39:28.118Z,4.05
2019-04-25T12:41:57.937Z,3.67
2019-04-25T12:44:34.474Z,3.30
2019-04-25T12:47:13.512Z,3.62
2019-04-25T12:49:43.789Z,3.67
2019-04-25T12:52:13.765Z,3.83
2019-04-25T12:54:44.074Z,3.83
2019-04-25T12:57:14.649Z,3.70
2019-04-25T12:59:45.147Z,4.12
2019-04-25T13:02:15.167Z,3.37
2019-04-25T13:04:44.876Z,3.87
2019-04-25T13:07:14.889Z,3.77
2019-04-25T13:09:44.067Z,3.75
2019-04-25T13:12:14.958Z,3.30
2019-04-25T13:14:45.109Z,3.20
2019-04-25T13:17:14.861Z,3.52
2019-04-25T13:19:45.494Z,3.50
2019-04-25T13:22:15.305Z,3.65
2019-04-25T13:24:45.014Z,3.55
2019-04-25T13:27:31.426Z,3.37
2019-04-25T13:30:03.766Z,4.45
2019-04-25T13:32:52.270Z,4.25
2019-04-25T13:35:33.508Z,3.58
2019-04-25T13:38:03.435Z,3.15
2019-04-25T13:40:33.146Z,3.35
2019-04-25T13:43:04.819Z,3.45
2019-04-25T13:45:33.897Z,3.58
2019-04-25T13:48:04.860Z,3.40
2019-04-25T13:50:35.066Z,3.67
2019-04-25T13:53:04.873Z,3.60
2019-04-25T13:55:34.675Z,3.50
2019-04-25T13:58:04.802Z,3.52
2019-04-25T14:00:34.932Z,3.47
2019-04-25T14:03:04.498Z,4.08
2019-04-25T14:05:35.324Z,4.15
2019-04-25T14:08:05.206Z,3.85
2019-04-25T14:10:35.002Z,3.58
2019-04-25T14:13:05.022Z,3.75
2019-04-25T14:15:37.158Z,3.33
2019-04-25T14:18:25.217Z,3.52
2019-04-25T14:21:13.291Z,3.55
2019-04-25T14:23:44.248Z,3.70
2019-04-25T14:26:14.206Z,3.27
2019-04-25T14:28:45.063Z,3.58
2019-04-25T14:31:30.562Z,3.37
2019-04-25T14:33:47.962Z,3.45
2019-04-25T14:36:17.661Z,3.80
2019-04-25T14:38:47.474Z,3.62
2019-04-25T14:41:16.876Z,4.00
2019-04-25T14:43:46.587Z,3.67
2019-04-25T14:46:17.426Z,3.98
2019-04-25T14:48:46.834Z,4.70
2019-04-25T14:51:16.535Z,3.87
2019-04-25T14:53:46.342Z,3.65
2019-04-25T14:56:17.596Z,4.05
2019-04-25T14:58:47.616Z,3.92
2019-04-25T15:01:18.621Z,4.37
2019-04-25T15:03:48.461Z,4.00
2019-04-25T15:06:17.942Z,4.10
2019-04-25T15:08:47.681Z,4.67
2019-04-25T15:11:17.286Z,4.10
2019-04-25T15:13:46.697Z,3.90
2019-04-25T15:16:16.009Z,3.67
2019-04-25T15:18:46.799Z,5.35
2019-04-25T15:21:18.714Z,3.95
2019-04-25T15:23:59.585Z,4.55
2019-04-25T15:26:19.345Z,5.80
2019-04-25T15:28:49.065Z,6.40
2019-04-25T15:31:18.499Z,3.75
2019-04-25T15:33:48.370Z,4.00
2019-04-25T15:36:28.564Z,4.17
2019-04-25T15:39:03.145Z,4.12
2019-04-25T15:41:38.536Z,4.90
2019-04-25T15:44:09.834Z,4.03
2019-04-25T15:46:41.287Z,4.67
2019-04-25T15:49:11.098Z,5.55
2019-04-25T15:51:40.910Z,4.53
2019-04-25T15:54:10.366Z,4.10
2019-04-25T15:56:40.237Z,4.33
2019-04-25T15:59:09.942Z,4.30
2019-04-25T16:01:39.857Z,3.80
2019-04-25T16:04:09.780Z,3.83
2019-04-25T16:06:39.586Z,3.85
2019-04-25T16:09:10.523Z,4.08
2019-04-25T16:11:40.979Z,4.45
2019-04-25T16:14:10.885Z,4.30
2019-04-25T16:16:40.576Z,3.92
2019-04-25T16:19:10.498Z,4.00
2019-04-25T16:21:42.128Z,3.83
2019-04-25T16:24:11.669Z,4.65
2019-04-25T16:26:42.473Z,3.80
2019-04-25T16:29:12.089Z,4.87
2019-04-25T16:31:42.010Z,4.90
2019-04-25T16:34:11.837Z,4.58
2019-04-25T16:36:41.820Z,5.17
2019-04-25T16:39:12.858Z,4.78
2019-04-25T16:41:43.935Z,5.75
2019-04-25T16:44:15.031Z,5.28
2019-04-25T16:46:44.773Z,5.62
2019-04-25T16:49:14.590Z,5.40
2019-04-25T16:51:44.190Z,5.05
2019-04-25T16:54:13.817Z,4.95
2019-04-25T16:56:43.617Z,4.83
2019-04-25T16:59:13.429Z,5.67
2019-04-25T17:01:42.909Z,4.95
2019-04-25T17:04:12.751Z,4.80
2019-04-25T17:06:42.066Z,5.08
2019-04-25T17:09:11.808Z,5.72
2019-04-25T17:11:42.699Z,5.47
2019-04-25T17:14:14.041Z,5.12
2019-04-25T17:16:45.394Z,5.30
2019-04-25T17:19:28.479Z,5.80
2019-04-25T17:21:58.222Z,5.62
2019-04-25T17:24:27.944Z,5.37
2019-04-25T17:26:57.657Z,10.53
2019-04-25T17:29:27.457Z,4.97
2019-04-25T17:32:13.858Z,5.37
2019-04-25T17:35:01.612Z,5.00
2019-04-25T17:37:48.405Z,5.72
2019-04-25T17:40:19.625Z,4.85
2019-04-25T17:42:49.362Z,6.65
2019-04-25T17:45:20.711Z,5.22
2019-04-25T17:47:54.543Z,5.28
2019-04-25T17:50:21.078Z,5.25
2019-04-25T17:52:50.962Z,4.85
2019-04-25T17:55:21.090Z,6.00
2019-04-25T17:57:50.904Z,5.40
2019-04-25T18:00:24.409Z,5.60
2019-04-25T18:02:58.961Z,5.25
2019-04-25T18:05:25.041Z,5.45
2019-04-25T18:07:54.861Z,4.97
2019-04-25T18:10:24.771Z,5.97
2019-04-25T18:12:54.581Z,5.87
2019-04-25T18:15:31.561Z,6.40
2019-04-25T18:18:02.397Z,6.10
2019-04-25T18:20:37.021Z,6.10
2019-04-25T18:23:08.274Z,5.95
2019-04-25T18:25:58.060Z,6.33
2019-04-25T18:28:29.076Z,4.95
2019-04-25T18:30:59.210Z,5.95
2019-04-25T18:33:28.863Z,6.42
2019-04-25T18:36:02.738Z,6.17
2019-04-25T18:38:53.433Z,6.17
2019-04-25T18:41:27.752Z,7.67
2019-04-25T18:44:01.769Z,7.05
2019-04-25T18:46:39.152Z,7.17
2019-04-25T18:49:09.271Z,6.42
2019-04-25T18:51:39.089Z,5.85
2019-04-25T18:54:10.446Z,5.70
2019-04-25T18:56:41.721Z,6.80
2019-04-25T18:59:15.642Z,6.60
2019-04-25T19:04:23.507Z,6.28
2019-04-25T19:06:58.026Z,6.78
2019-04-25T19:09:24.575Z,6.50
2019-04-25T19:11:54.286Z,6.10
2019-04-25T19:14:24.094Z,6.15
2019-04-25T19:16:53.899Z,6.50
2019-04-25T19:19:23.710Z,6.78
2019-04-25T19:21:53.246Z,6.83
2019-04-25T19:24:22.726Z,6.90
2019-04-25T19:26:52.342Z,5.90
2019-04-25T19:29:22.042Z,6.80
2019-04-25T19:31:53.295Z,6.40
2019-04-25T19:34:25.046Z,7.10
2019-04-25T19:36:54.658Z,6.17
2019-04-25T19:39:25.925Z,6.03
2019-04-25T19:42:15.373Z,6.95
2019-04-25T19:44:45.188Z,6.58
2019-04-25T19:47:15.009Z,6.37
2019-04-25T19:49:44.992Z,6.30
2019-04-25T19:52:14.456Z,6.28
2019-04-25T19:54:43.961Z,7.58
2019-04-25T19:57:13.641Z,5.72
2019-04-25T19:59:44.619Z,5.62
2019-04-25T20:02:16.949Z,5.83
2019-04-25T20:04:51.218Z,5.75
2019-04-25T20:07:31.420Z,6.12
2019-04-25T20:10:19.041Z,6.12
2019-04-25T20:12:51.767Z,5.87
2019-04-25T20:15:21.650Z,6.22
2019-04-25T20:17:51.965Z,6.37
2019-04-25T20:20:21.586Z,14.90
2019-04-25T20:22:52.290Z,6.58
2019-04-25T20:25:21.857Z,6.30
2019-04-25T20:27:51.527Z,6.10
2019-04-25T20:30:23.369Z,6.03
2019-04-25T20:32:53.490Z,6.72
2019-04-25T20:35:23.112Z,6.78
2019-04-25T20:37:53.419Z,7.08
2019-04-25T20:40:23.322Z,6.28
2019-04-25T20:42:53.926Z,6.10
2019-04-25T20:45:24.206Z,6.70
2019-04-25T20:47:54.763Z,5.87
2019-04-25T20:50:24.555Z,6.30
2019-04-25T20:52:54.942Z,6.35
2019-04-25T20:55:25.521Z,7.45
2019-04-25T20:57:55.504Z,6.80
2019-04-25T21:00:45.319Z,6.72
2019-04-25T21:03:15.009Z,6.62
2019-04-25T21:05:45.280Z,7.08
2019-04-25T21:08:14.936Z,7.08
2019-04-25T21:10:44.359Z,6.58
2019-04-25T21:13:15.237Z,7.00
2019-04-25T21:15:46.401Z,6.87
2019-04-25T21:18:17.790Z,6.92
2019-04-25T21:20:47.594Z,7.60
2019-04-25T21:23:16.838Z,6.10
2019-04-25T21:25:46.601Z,6.97
2019-04-25T21:28:16.306Z,6.85
2019-04-25T21:30:45.725Z,6.62
2019-04-25T21:33:15.525Z,7.40
2019-04-25T21:35:46.057Z,7.12
2019-04-25T21:38:16.795Z,6.87
2019-04-25T21:40:48.753Z,7.42
2019-04-25T21:43:20.474Z,7.00
2019-04-25T21:45:50.420Z,6.80
2019-04-25T21:48:20.421Z,7.45
2019-04-25T21:50:49.947Z,7.37
2019-04-25T21:53:19.328Z,6.53
2019-04-25T21:55:49.362Z,8.13
2019-04-25T21:58:19.283Z,7.10
2019-04-25T22:00:52.195Z,7.30
2019-04-25T22:03:23.830Z,7.33
2019-04-25T22:05:54.335Z,7.05
2019-04-25T22:08:24.674Z,7.10
2019-04-25T22:10:55.928Z,7.25
2019-04-25T22:13:25.733Z,7.15
2019-04-25T22:15:56.195Z,6.95
2019-04-25T22:18:26.906Z,7.17
2019-04-25T22:20:56.850Z,8.63
2019-04-25T22:23:26.727Z,8.28
2019-04-25T22:25:57.977Z,7.55
2019-04-25T22:28:28.433Z,8.38
2019-04-25T22:31:00.056Z,7.85
2019-04-25T22:33:47.369Z,7.45
2019-04-25T22:36:19.034Z,7.53
2019-04-25T22:38:50.382Z,7.22
2019-04-25T22:41:20.101Z,8.30
2019-04-25T22:43:54.620Z,7.20
2019-04-25T22:46:25.815Z,7.25
2019-04-25T22:48:55.702Z,7.92
2019-04-25T22:51:25.581Z,8.00
2019-04-25T22:53:55.609Z,7.60
2019-04-25T22:56:25.318Z,7.00
2019-04-25T22:58:55.025Z,7.55
2019-04-25T23:01:42.820Z,8.10
2019-04-25T23:04:14.200Z,6.92
2019-04-25T23:06:43.889Z,8.10
2019-04-25T23:09:13.648Z,6.47
2019-04-25T23:11:43.581Z,7.35
2019-04-25T23:14:13.565Z,8.05
2019-04-25T23:16:43.010Z,7.03
2019-04-25T23:19:13.443Z,7.42
2019-04-25T23:21:43.750Z,6.75
2019-04-25T23:24:14.637Z,7.42
2019-04-25T23:27:05.168Z,6.65
2019-04-25T23:29:35.986Z,8.03
2019-04-25T23:32:06.800Z,7.83
2019-04-25T23:34:36.633Z,7.47
2019-04-25T23:37:07.138Z,6.75
2019-04-25T23:39:37.389Z,7.47
2019-04-25T23:42:07.303Z,7.25
2019-04-25T23:44:37.100Z,6.80
2019-04-25T23:47:08.232Z,6.92
2019-04-25T23:49:38.071Z,7.35
2019-04-25T23:52:08.647Z,7.03
2019-04-25T23:54:38.510Z,7.65
2019-04-25T23:57:09.393Z,8.18
2019-04-25T23:59:40.288Z,8.35
